sensor_id;sensor_type;location;lat;lon;timestamp;P1;durP1;ratioP1;P2;durP2;ratioP2
6412;SDS011;3239;48.714;9.472;2023-01-10T00:01:21;2.13;;;0.90;;
6412;SDS011;3239;48.714;9.472;2023-01-10T00:03:47;1.77;;;0.80;;
6412;SDS011;3239;48.714;9.472;2023-01-10T00:06:14;1.87;;;0.97;;
6412;SDS011;3239;48.714;9.472;2023-01-10T00:08:39;1.73;;;1.00;;
6412;SDS011;3239;48.714;9.472;2023-01-10T00:11:05;2.00;;;0.70;;
6412;SDS011;3239;48.714;9.472;2023-01-10T00:13:54;2.20;;;1.00;;
6412;SDS011;3239;48.714;9.472;2023-01-10T00:16:21;1.60;;;0.93;;
6412;SDS011;3239;48.714;9.472;2023-01-10T00:18:47;1.13;;;0.73;;
6412;SDS011;3239;48.714;9.472;2023-01-10T00:21:13;1.30;;;0.80;;
6412;SDS011;3239;48.714;9.472;2023-01-10T00:23:39;5.80;;;1.00;;
6412;SDS011;3239;48.714;9.472;2023-01-10T00:26:07;1.70;;;0.70;;
6412;SDS011;3239;48.714;9.472;2023-01-10T00:28:33;1.20;;;0.80;;
6412;SDS011;3239;48.714;9.472;2023-01-10T00:30:59;1.73;;;0.80;;
6412;SDS011;3239;48.714;9.472;2023-01-10T00:33:30;2.80;;;0.90;;
6412;SDS011;3239;48.714;9.472;2023-01-10T00:35:58;2.10;;;1.07;;
6412;SDS011;3239;48.714;9.472;2023-01-10T00:38:24;1.40;;;0.70;;
6412;SDS011;3239;48.714;9.472;2023-01-10T00:40:51;0.80;;;0.50;;
6412;SDS011;3239;48.714;9.472;2023-01-10T00:43:17;1.20;;;0.70;;
6412;SDS011;3239;48.714;9.472;2023-01-10T00:46:02;1.00;;;0.60;;
6412;SDS011;3239;48.714;9.472;2023-01-10T00:48:27;0.93;;;0.60;;
6412;SDS011;3239;48.714;9.472;2023-01-10T00:50:53;1.30;;;0.80;;
6412;SDS011;3239;48.714;9.472;2023-01-10T00:53:20;1.70;;;0.90;;
6412;SDS011;3239;48.714;9.472;2023-01-10T00:55:46;2.00;;;1.20;;
6412;SDS011;3239;48.714;9.472;2023-01-10T00:58:12;3.47;;;1.60;;
6412;SDS011;3239;48.714;9.472;2023-01-10T01:00:39;2.47;;;1.60;;
6412;SDS011;3239;48.714;9.472;2023-01-10T01:03:07;1.10;;;0.80;;
6412;SDS011;3239;48.714;9.472;2023-01-10T01:05:33;2.47;;;1.00;;
6412;SDS011;3239;48.714;9.472;2023-01-10T01:08:04;2.90;;;0.90;;
6412;SDS011;3239;48.714;9.472;2023-01-10T01:10:30;1.17;;;0.90;;
6412;SDS011;3239;48.714;9.472;2023-01-10T01:12:57;4.83;;;1.10;;
6412;SDS011;3239;48.714;9.472;2023-01-10T01:15:32;3.30;;;1.23;;
6412;SDS011;3239;48.714;9.472;2023-01-10T01:17:59;2.30;;;1.30;;
6412;SDS011;3239;48.714;9.472;2023-01-10T01:20:25;2.13;;;1.00;;
6412;SDS011;3239;48.714;9.472;2023-01-10T01:22:50;4.13;;;1.23;;
6412;SDS011;3239;48.714;9.472;2023-01-10T01:25:16;2.47;;;1.00;;
6412;SDS011;3239;48.714;9.472;2023-01-10T01:27:42;2.47;;;1.50;;
6412;SDS011;3239;48.714;9.472;2023-01-10T01:30:08;4.20;;;1.20;;
6412;SDS011;3239;48.714;9.472;2023-01-10T01:32:38;8.57;;;1.23;;
6412;SDS011;3239;48.714;9.472;2023-01-10T01:35:04;4.03;;;1.07;;
6412;SDS011;3239;48.714;9.472;2023-01-10T01:37:32;3.10;;;1.63;;
6412;SDS011;3239;48.714;9.472;2023-01-10T01:39:57;2.60;;;0.90;;
6412;SDS011;3239;48.714;9.472;2023-01-10T01:47:32;2.33;;;0.90;;
6412;SDS011;3239;48.714;9.472;2023-01-10T01:50:05;1.70;;;0.90;;
6412;SDS011;3239;48.714;9.472;2023-01-10T01:52:42;1.93;;;0.80;;
6412;SDS011;3239;48.714;9.472;2023-01-10T01:55:09;2.03;;;1.17;;
6412;SDS011;3239;48.714;9.472;2023-01-10T01:57:35;1.77;;;0.90;;
6412;SDS011;3239;48.714;9.472;2023-01-10T02:00:02;1.60;;;0.70;;
6412;SDS011;3239;48.714;9.472;2023-01-10T02:02:30;6.63;;;1.20;;
6412;SDS011;3239;48.714;9.472;2023-01-10T02:07:34;1.80;;;0.83;;
6412;SDS011;3239;48.714;9.472;2023-01-10T02:13:06;0.90;;;0.60;;
6412;SDS011;3239;48.714;9.472;2023-01-10T02:15:35;1.30;;;0.60;;
6412;SDS011;3239;48.714;9.472;2023-01-10T02:18:01;1.87;;;0.90;;
6412;SDS011;3239;48.714;9.472;2023-01-10T02:20:29;1.70;;;0.67;;
6412;SDS011;3239;48.714;9.472;2023-01-10T02:24:15;2.00;;;0.70;;
6412;SDS011;3239;48.714;9.472;2023-01-10T02:38:41;2.40;;;0.70;;
6412;SDS011;3239;48.714;9.472;2023-01-10T02:41:31;1.20;;;0.60;;
6412;SDS011;3239;48.714;9.472;2023-01-10T02:44:22;1.00;;;0.60;;
6412;SDS011;3239;48.714;9.472;2023-01-10T02:46:57;1.07;;;0.70;;
6412;SDS011;3239;48.714;9.472;2023-01-10T02:49:26;0.90;;;0.53;;
6412;SDS011;3239;48.714;9.472;2023-01-10T02:51:52;1.10;;;0.50;;
6412;SDS011;3239;48.714;9.472;2023-01-10T02:54:22;0.80;;;0.50;;
6412;SDS011;3239;48.714;9.472;2023-01-10T03:09:05;1.67;;;0.77;;
6412;SDS011;3239;48.714;9.472;2023-01-10T03:11:52;1.50;;;1.00;;
6412;SDS011;3239;48.714;9.472;2023-01-10T03:14:45;1.40;;;0.80;;
6412;SDS011;3239;48.714;9.472;2023-01-10T03:17:12;1.23;;;0.63;;
6412;SDS011;3239;48.714;9.472;2023-01-10T03:19:42;1.50;;;0.70;;
6412;SDS011;3239;48.714;9.472;2023-01-10T03:22:14;1.23;;;0.80;;
6412;SDS011;3239;48.714;9.472;2023-01-10T03:24:44;1.40;;;1.00;;
6412;SDS011;3239;48.714;9.472;2023-01-10T03:27:26;1.20;;;1.10;;
6412;SDS011;3239;48.714;9.472;2023-01-10T03:30:16;2.00;;;0.70;;
6412;SDS011;3239;48.714;9.472;2023-01-10T03:33:00;2.53;;;1.30;;
6412;SDS011;3239;48.714;9.472;2023-01-10T03:35:43;3.80;;;1.10;;
6412;SDS011;3239;48.714;9.472;2023-01-10T03:38:41;2.03;;;0.90;;
6412;SDS011;3239;48.714;9.472;2023-01-10T03:49:58;3.97;;;1.20;;
6412;SDS011;3239;48.714;9.472;2023-01-10T03:52:31;3.33;;;1.13;;
6412;SDS011;3239;48.714;9.472;2023-01-10T03:54:59;2.67;;;1.20;;
6412;SDS011;3239;48.714;9.472;2023-01-10T03:57:26;2.57;;;1.30;;
6412;SDS011;3239;48.714;9.472;2023-01-10T03:59:54;3.10;;;1.00;;
6412;SDS011;3239;48.714;9.472;2023-01-10T04:02:24;2.33;;;0.97;;
6412;SDS011;3239;48.714;9.472;2023-01-10T04:04:55;1.93;;;1.03;;
6412;SDS011;3239;48.714;9.472;2023-01-10T04:07:21;3.90;;;1.40;;
6412;SDS011;3239;48.714;9.472;2023-01-10T04:09:47;3.47;;;1.10;;
6412;SDS011;3239;48.714;9.472;2023-01-10T04:12:13;2.70;;;0.90;;
6412;SDS011;3239;48.714;9.472;2023-01-10T04:14:39;4.27;;;1.17;;
6412;SDS011;3239;48.714;9.472;2023-01-10T04:17:05;13.73;;;1.80;;
6412;SDS011;3239;48.714;9.472;2023-01-10T04:19:31;4.70;;;1.90;;
6412;SDS011;3239;48.714;9.472;2023-01-10T04:21:57;6.50;;;2.80;;
6412;SDS011;3239;48.714;9.472;2023-01-10T04:24:23;5.33;;;2.70;;
6412;SDS011;3239;48.714;9.472;2023-01-10T04:26:49;6.63;;;1.93;;
6412;SDS011;3239;48.714;9.472;2023-01-10T04:29:15;6.90;;;1.60;;
6412;SDS011;3239;48.714;9.472;2023-01-10T04:31:41;5.43;;;1.33;;
6412;SDS011;3239;48.714;9.472;2023-01-10T04:34:07;4.50;;;1.73;;
6412;SDS011;3239;48.714;9.472;2023-01-10T04:36:33;5.40;;;1.60;;
6412;SDS011;3239;48.714;9.472;2023-01-10T04:39:00;4.30;;;1.50;;
6412;SDS011;3239;48.714;9.472;2023-01-10T04:41:26;8.97;;;1.70;;
6412;SDS011;3239;48.714;9.472;2023-01-10T04:43:52;4.37;;;1.20;;
6412;SDS011;3239;48.714;9.472;2023-01-10T04:46:18;7.87;;;1.43;;
6412;SDS011;3239;48.714;9.472;2023-01-10T04:48:44;3.43;;;1.60;;
6412;SDS011;3239;48.714;9.472;2023-01-10T04:51:10;5.37;;;2.13;;
6412;SDS011;3239;48.714;9.472;2023-01-10T04:53:36;3.40;;;1.50;;
6412;SDS011;3239;48.714;9.472;2023-01-10T04:56:02;3.37;;;1.60;;
6412;SDS011;3239;48.714;9.472;2023-01-10T04:58:31;3.17;;;1.67;;
6412;SDS011;3239;48.714;9.472;2023-01-10T05:01:12;3.60;;;1.50;;
6412;SDS011;3239;48.714;9.472;2023-01-10T05:03:47;7.27;;;1.97;;
6412;SDS011;3239;48.714;9.472;2023-01-10T05:06:18;6.43;;;1.57;;
6412;SDS011;3239;48.714;9.472;2023-01-10T05:08:45;6.13;;;1.70;;
6412;SDS011;3239;48.714;9.472;2023-01-10T05:11:12;4.63;;;2.20;;
6412;SDS011;3239;48.714;9.472;2023-01-10T05:13:38;5.80;;;2.00;;
6412;SDS011;3239;48.714;9.472;2023-01-10T05:16:04;14.70;;;8.30;;
6412;SDS011;3239;48.714;9.472;2023-01-10T05:18:30;4.93;;;2.20;;
6412;SDS011;3239;48.714;9.472;2023-01-10T05:21:03;3.10;;;1.80;;
6412;SDS011;3239;48.714;9.472;2023-01-10T05:23:35;5.93;;;1.77;;
6412;SDS011;3239;48.714;9.472;2023-01-10T05:26:05;6.17;;;1.70;;
6412;SDS011;3239;48.714;9.472;2023-01-10T05:28:43;5.57;;;1.50;;
6412;SDS011;3239;48.714;9.472;2023-01-10T05:31:13;10.43;;;2.60;;
6412;SDS011;3239;48.714;9.472;2023-01-10T05:33:45;7.87;;;1.70;;
6412;SDS011;3239;48.714;9.472;2023-01-10T05:36:12;5.03;;;1.40;;
6412;SDS011;3239;48.714;9.472;2023-01-10T05:38:38;2.57;;;1.30;;
6412;SDS011;3239;48.714;9.472;2023-01-10T05:41:04;4.83;;;1.87;;
6412;SDS011;3239;48.714;9.472;2023-01-10T05:43:30;4.20;;;1.87;;
6412;SDS011;3239;48.714;9.472;2023-01-10T05:45:56;13.37;;;2.20;;
6412;SDS011;3239;48.714;9.472;2023-01-10T05:48:22;3.67;;;2.00;;
6412;SDS011;3239;48.714;9.472;2023-01-10T05:50:48;4.67;;;1.70;;
6412;SDS011;3239;48.714;9.472;2023-01-10T05:53:15;3.70;;;1.47;;
6412;SDS011;3239;48.714;9.472;2023-01-10T05:55:41;2.40;;;1.30;;
6412;SDS011;3239;48.714;9.472;2023-01-10T05:58:07;2.23;;;1.23;;
6412;SDS011;3239;48.714;9.472;2023-01-10T06:00:35;1.87;;;1.00;;
6412;SDS011;3239;48.714;9.472;2023-01-10T06:03:02;2.00;;;0.80;;
6412;SDS011;3239;48.714;9.472;2023-01-10T06:05:28;3.87;;;1.30;;
6412;SDS011;3239;48.714;9.472;2023-01-10T06:07:53;5.03;;;1.13;;
6412;SDS011;3239;48.714;9.472;2023-01-10T06:10:19;3.23;;;1.20;;
6412;SDS011;3239;48.714;9.472;2023-01-10T06:12:45;3.23;;;1.00;;
6412;SDS011;3239;48.714;9.472;2023-01-10T06:15:13;2.97;;;1.27;;
6412;SDS011;3239;48.714;9.472;2023-01-10T06:17:40;7.90;;;1.57;;
6412;SDS011;3239;48.714;9.472;2023-01-10T06:20:06;4.70;;;1.27;;
6412;SDS011;3239;48.714;9.472;2023-01-10T06:22:32;3.00;;;1.47;;
6412;SDS011;3239;48.714;9.472;2023-01-10T06:24:58;4.53;;;1.43;;
6412;SDS011;3239;48.714;9.472;2023-01-10T06:27:24;2.77;;;1.40;;
6412;SDS011;3239;48.714;9.472;2023-01-10T06:29:49;4.53;;;1.40;;
6412;SDS011;3239;48.714;9.472;2023-01-10T06:32:15;6.50;;;2.17;;
6412;SDS011;3239;48.714;9.472;2023-01-10T06:34:41;8.80;;;1.80;;
6412;SDS011;3239;48.714;9.472;2023-01-10T06:37:06;5.27;;;2.50;;
6412;SDS011;3239;48.714;9.472;2023-01-10T06:39:32;8.07;;;1.97;;
6412;SDS011;3239;48.714;9.472;2023-01-10T06:41:58;4.07;;;1.67;;
6412;SDS011;3239;48.714;9.472;2023-01-10T06:44:23;4.73;;;1.47;;
6412;SDS011;3239;48.714;9.472;2023-01-10T06:46:49;11.33;;;2.10;;
6412;SDS011;3239;48.714;9.472;2023-01-10T06:49:15;4.97;;;1.57;;
6412;SDS011;3239;48.714;9.472;2023-01-10T06:51:41;4.90;;;1.90;;
6412;SDS011;3239;48.714;9.472;2023-01-10T06:54:07;12.17;;;2.60;;
6412;SDS011;3239;48.714;9.472;2023-01-10T06:56:32;9.83;;;3.00;;
6412;SDS011;3239;48.714;9.472;2023-01-10T06:58:58;11.00;;;2.50;;
6412;SDS011;3239;48.714;9.472;2023-01-10T07:01:24;13.40;;;2.77;;
6412;SDS011;3239;48.714;9.472;2023-01-10T07:03:50;7.10;;;2.03;;
6412;SDS011;3239;48.714;9.472;2023-01-10T07:06:16;6.60;;;2.40;;
6412;SDS011;3239;48.714;9.472;2023-01-10T07:08:43;4.87;;;2.07;;
6412;SDS011;3239;48.714;9.472;2023-01-10T07:11:10;8.27;;;1.63;;
6412;SDS011;3239;48.714;9.472;2023-01-10T07:13:38;7.37;;;2.27;;
6412;SDS011;3239;48.714;9.472;2023-01-10T07:16:05;14.63;;;2.10;;
6412;SDS011;3239;48.714;9.472;2023-01-10T07:18:34;10.70;;;2.90;;
6412;SDS011;3239;48.714;9.472;2023-01-10T07:21:02;7.37;;;1.83;;
6412;SDS011;3239;48.714;9.472;2023-01-10T07:23:28;5.77;;;1.53;;
6412;SDS011;3239;48.714;9.472;2023-01-10T07:25:55;6.73;;;1.77;;
6412;SDS011;3239;48.714;9.472;2023-01-10T07:28:23;8.20;;;1.73;;
6412;SDS011;3239;48.714;9.472;2023-01-10T07:30:48;11.00;;;2.47;;
6412;SDS011;3239;48.714;9.472;2023-01-10T07:33:14;6.00;;;1.67;;
6412;SDS011;3239;48.714;9.472;2023-01-10T07:35:40;2.73;;;1.23;;
6412;SDS011;3239;48.714;9.472;2023-01-10T07:38:06;8.00;;;2.37;;
6412;SDS011;3239;48.714;9.472;2023-01-10T07:40:33;7.50;;;2.20;;
6412;SDS011;3239;48.714;9.472;2023-01-10T07:42:59;8.40;;;2.27;;
6412;SDS011;3239;48.714;9.472;2023-01-10T07:45:26;7.97;;;1.83;;
6412;SDS011;3239;48.714;9.472;2023-01-10T07:47:57;6.07;;;1.83;;
6412;SDS011;3239;48.714;9.472;2023-01-10T07:50:30;3.10;;;1.20;;
6412;SDS011;3239;48.714;9.472;2023-01-10T07:52:59;7.40;;;1.70;;
6412;SDS011;3239;48.714;9.472;2023-01-10T07:55:27;8.20;;;1.73;;
6412;SDS011;3239;48.714;9.472;2023-01-10T07:57:54;9.90;;;2.23;;
6412;SDS011;3239;48.714;9.472;2023-01-10T08:00:20;4.80;;;1.73;;
6412;SDS011;3239;48.714;9.472;2023-01-10T08:02:46;2.90;;;1.87;;
6412;SDS011;3239;48.714;9.472;2023-01-10T08:05:16;8.40;;;1.60;;
6412;SDS011;3239;48.714;9.472;2023-01-10T08:07:42;8.00;;;2.70;;
6412;SDS011;3239;48.714;9.472;2023-01-10T08:10:08;9.30;;;3.30;;
6412;SDS011;3239;48.714;9.472;2023-01-10T08:12:35;12.00;;;4.00;;
6412;SDS011;3239;48.714;9.472;2023-01-10T08:15:01;9.40;;;4.20;;
6412;SDS011;3239;48.714;9.472;2023-01-10T08:17:27;10.23;;;3.13;;
6412;SDS011;3239;48.714;9.472;2023-01-10T08:19:53;9.23;;;3.17;;
6412;SDS011;3239;48.714;9.472;2023-01-10T08:22:18;8.70;;;3.20;;
6412;SDS011;3239;48.714;9.472;2023-01-10T08:24:44;8.67;;;3.30;;
6412;SDS011;3239;48.714;9.472;2023-01-10T08:27:10;10.17;;;2.93;;
6412;SDS011;3239;48.714;9.472;2023-01-10T08:29:36;10.80;;;2.00;;
6412;SDS011;3239;48.714;9.472;2023-01-10T08:32:02;5.00;;;1.50;;
6412;SDS011;3239;48.714;9.472;2023-01-10T08:34:27;8.53;;;2.23;;
6412;SDS011;3239;48.714;9.472;2023-01-10T08:36:53;7.47;;;2.83;;
6412;SDS011;3239;48.714;9.472;2023-01-10T08:39:20;8.20;;;2.13;;
6412;SDS011;3239;48.714;9.472;2023-01-10T08:41:46;10.47;;;1.93;;
6412;SDS011;3239;48.714;9.472;2023-01-10T08:44:13;4.23;;;1.53;;
6412;SDS011;3239;48.714;9.472;2023-01-10T08:46:40;7.93;;;1.90;;
6412;SDS011;3239;48.714;9.472;2023-01-10T08:49:06;9.50;;;1.80;;
6412;SDS011;3239;48.714;9.472;2023-01-10T08:51:32;6.70;;;1.10;;
6412;SDS011;3239;48.714;9.472;2023-01-10T08:53:58;5.30;;;1.83;;
6412;SDS011;3239;48.714;9.472;2023-01-10T08:56:24;6.40;;;1.67;;
6412;SDS011;3239;48.714;9.472;2023-01-10T08:58:50;8.03;;;1.90;;
6412;SDS011;3239;48.714;9.472;2023-01-10T09:01:16;12.03;;;2.57;;
6412;SDS011;3239;48.714;9.472;2023-01-10T09:03:41;7.17;;;2.10;;
6412;SDS011;3239;48.714;9.472;2023-01-10T09:06:07;10.03;;;1.80;;
6412;SDS011;3239;48.714;9.472;2023-01-10T09:08:33;6.43;;;1.90;;
6412;SDS011;3239;48.714;9.472;2023-01-10T09:11:00;5.23;;;1.83;;
6412;SDS011;3239;48.714;9.472;2023-01-10T09:13:27;5.03;;;1.70;;
6412;SDS011;3239;48.714;9.472;2023-01-10T09:15:54;8.20;;;1.70;;
6412;SDS011;3239;48.714;9.472;2023-01-10T09:18:22;7.90;;;2.00;;
6412;SDS011;3239;48.714;9.472;2023-01-10T09:20:49;7.77;;;1.63;;
6412;SDS011;3239;48.714;9.472;2023-01-10T09:23:16;4.60;;;1.60;;
6412;SDS011;3239;48.714;9.472;2023-01-10T09:25:48;8.77;;;1.97;;
6412;SDS011;3239;48.714;9.472;2023-01-10T09:28:16;4.40;;;1.83;;
6412;SDS011;3239;48.714;9.472;2023-01-10T09:30:43;7.33;;;2.10;;
6412;SDS011;3239;48.714;9.472;2023-01-10T09:33:09;8.00;;;2.50;;
6412;SDS011;3239;48.714;9.472;2023-01-10T09:35:36;7.33;;;1.93;;
6412;SDS011;3239;48.714;9.472;2023-01-10T09:38:04;9.30;;;2.37;;
6412;SDS011;3239;48.714;9.472;2023-01-10T09:46:05;6.47;;;1.77;;
6412;SDS011;3239;48.714;9.472;2023-01-10T09:54:08;5.80;;;1.73;;
6412;SDS011;3239;48.714;9.472;2023-01-10T09:56:49;11.20;;;1.93;;
6412;SDS011;3239;48.714;9.472;2023-01-10T09:59:20;8.80;;;2.40;;
6412;SDS011;3239;48.714;9.472;2023-01-10T10:01:51;7.50;;;2.33;;
6412;SDS011;3239;48.714;9.472;2023-01-10T10:04:35;6.00;;;2.03;;
6412;SDS011;3239;48.714;9.472;2023-01-10T10:07:04;10.67;;;2.67;;
6412;SDS011;3239;48.714;9.472;2023-01-10T10:09:38;10.10;;;2.57;;
6412;SDS011;3239;48.714;9.472;2023-01-10T10:20:23;7.77;;;1.53;;
6412;SDS011;3239;48.714;9.472;2023-01-10T10:23:25;6.50;;;2.00;;
6412;SDS011;3239;48.714;9.472;2023-01-10T10:26:33;7.20;;;1.60;;
6412;SDS011;3239;48.714;9.472;2023-01-10T10:34:41;7.43;;;1.30;;
6412;SDS011;3239;48.714;9.472;2023-01-10T10:42:43;2.73;;;1.33;;
6412;SDS011;3239;48.714;9.472;2023-01-10T10:48:26;3.50;;;1.40;;
6412;SDS011;3239;48.714;9.472;2023-01-10T10:53:43;6.80;;;1.30;;
6412;SDS011;3239;48.714;9.472;2023-01-10T10:56:10;4.73;;;1.63;;
6412;SDS011;3239;48.714;9.472;2023-01-10T10:58:42;5.10;;;1.30;;
6412;SDS011;3239;48.714;9.472;2023-01-10T11:01:12;8.00;;;2.30;;
6412;SDS011;3239;48.714;9.472;2023-01-10T11:03:46;7.53;;;1.37;;
6412;SDS011;3239;48.714;9.472;2023-01-10T11:06:19;5.73;;;1.53;;
6412;SDS011;3239;48.714;9.472;2023-01-10T11:08:48;7.47;;;1.40;;
6412;SDS011;3239;48.714;9.472;2023-01-10T11:11:36;9.70;;;1.60;;
6412;SDS011;3239;48.714;9.472;2023-01-10T11:14:14;5.90;;;1.43;;
6412;SDS011;3239;48.714;9.472;2023-01-10T11:17:16;4.03;;;1.00;;
6412;SDS011;3239;48.714;9.472;2023-01-10T11:20:12;3.07;;;1.40;;
6412;SDS011;3239;48.714;9.472;2023-01-10T11:22:50;4.87;;;1.47;;
6412;SDS011;3239;48.714;9.472;2023-01-10T11:25:19;5.17;;;1.20;;
6412;SDS011;3239;48.714;9.472;2023-01-10T11:28:04;5.30;;;1.47;;
6412;SDS011;3239;48.714;9.472;2023-01-10T11:30:38;5.27;;;1.80;;
6412;SDS011;3239;48.714;9.472;2023-01-10T11:33:05;4.80;;;1.60;;
6412;SDS011;3239;48.714;9.472;2023-01-10T11:35:52;4.77;;;1.80;;
6412;SDS011;3239;48.714;9.472;2023-01-10T11:38:33;4.40;;;1.40;;
6412;SDS011;3239;48.714;9.472;2023-01-10T11:41:21;6.33;;;1.77;;
6412;SDS011;3239;48.714;9.472;2023-01-10T11:43:51;5.03;;;1.20;;
6412;SDS011;3239;48.714;9.472;2023-01-10T11:46:17;4.73;;;1.30;;
6412;SDS011;3239;48.714;9.472;2023-01-10T11:49:05;5.17;;;1.30;;
6412;SDS011;3239;48.714;9.472;2023-01-10T11:51:44;3.80;;;1.40;;
6412;SDS011;3239;48.714;9.472;2023-01-10T11:54:24;10.63;;;2.20;;
6412;SDS011;3239;48.714;9.472;2023-01-10T11:56:57;4.87;;;1.80;;
6412;SDS011;3239;48.714;9.472;2023-01-10T11:59:30;7.00;;;2.13;;
6412;SDS011;3239;48.714;9.472;2023-01-10T12:04:38;6.70;;;2.10;;
6412;SDS011;3239;48.714;9.472;2023-01-10T12:07:08;5.30;;;2.30;;
6412;SDS011;3239;48.714;9.472;2023-01-10T12:09:37;3.33;;;1.80;;
6412;SDS011;3239;48.714;9.472;2023-01-10T12:14:50;6.50;;;1.30;;
6412;SDS011;3239;48.714;9.472;2023-01-10T12:20:05;2.90;;;1.20;;
6412;SDS011;3239;48.714;9.472;2023-01-10T12:22:39;8.80;;;1.10;;
6412;SDS011;3239;48.714;9.472;2023-01-10T12:27:48;6.23;;;1.23;;
6412;SDS011;3239;48.714;9.472;2023-01-10T12:32:55;5.50;;;1.30;;
6412;SDS011;3239;48.714;9.472;2023-01-10T12:35:30;13.60;;;3.00;;
6412;SDS011;3239;48.714;9.472;2023-01-10T12:41:17;4.23;;;1.10;;
6412;SDS011;3239;48.714;9.472;2023-01-10T12:44:12;10.67;;;2.27;;
6412;SDS011;3239;48.714;9.472;2023-01-10T12:47:09;6.03;;;1.67;;
6412;SDS011;3239;48.714;9.472;2023-01-10T12:50:10;4.03;;;1.10;;
6412;SDS011;3239;48.714;9.472;2023-01-10T12:53:05;5.70;;;1.50;;
6412;SDS011;3239;48.714;9.472;2023-01-10T12:55:54;2.80;;;1.20;;
6412;SDS011;3239;48.714;9.472;2023-01-10T12:58:31;3.10;;;1.83;;
6412;SDS011;3239;48.714;9.472;2023-01-10T13:01:02;3.23;;;1.20;;
6412;SDS011;3239;48.714;9.472;2023-01-10T13:03:31;5.60;;;1.27;;
6412;SDS011;3239;48.714;9.472;2023-01-10T13:05:58;4.77;;;1.30;;
6412;SDS011;3239;48.714;9.472;2023-01-10T13:08:25;3.27;;;1.40;;
6412;SDS011;3239;48.714;9.472;2023-01-10T13:10:56;8.53;;;1.30;;
6412;SDS011;3239;48.714;9.472;2023-01-10T13:21:48;4.70;;;1.37;;
6412;SDS011;3239;48.714;9.472;2023-01-10T13:24:25;3.83;;;0.97;;
6412;SDS011;3239;48.714;9.472;2023-01-10T13:26:58;4.13;;;1.10;;
6412;SDS011;3239;48.714;9.472;2023-01-10T13:29:28;4.27;;;1.10;;
6412;SDS011;3239;48.714;9.472;2023-01-10T13:32:02;4.30;;;1.40;;
6412;SDS011;3239;48.714;9.472;2023-01-10T13:34:52;3.70;;;1.27;;
6412;SDS011;3239;48.714;9.472;2023-01-10T13:37:52;4.70;;;1.40;;
6412;SDS011;3239;48.714;9.472;2023-01-10T13:40:25;4.07;;;1.70;;
6412;SDS011;3239;48.714;9.472;2023-01-10T13:51:17;4.90;;;1.23;;
6412;SDS011;3239;48.714;9.472;2023-01-10T14:02:24;4.43;;;2.10;;
6412;SDS011;3239;48.714;9.472;2023-01-10T14:04:53;5.57;;;1.47;;
6412;SDS011;3239;48.714;9.472;2023-01-10T14:07:57;3.13;;;1.30;;
6412;SDS011;3239;48.714;9.472;2023-01-10T14:10:20;6.57;;;1.77;;
6412;SDS011;3239;48.714;9.472;2023-01-10T14:12:57;4.77;;;1.10;;
6412;SDS011;3239;48.714;9.472;2023-01-10T14:15:40;6.13;;;1.30;;
6412;SDS011;3239;48.714;9.472;2023-01-10T14:20:56;2.50;;;1.03;;
6412;SDS011;3239;48.714;9.472;2023-01-10T14:23:27;4.60;;;1.40;;
6412;SDS011;3239;48.714;9.472;2023-01-10T14:26:16;3.40;;;1.20;;
6412;SDS011;3239;48.714;9.472;2023-01-10T14:28:49;5.60;;;1.33;;
6412;SDS011;3239;48.714;9.472;2023-01-10T14:31:20;3.63;;;1.00;;
6412;SDS011;3239;48.714;9.472;2023-01-10T14:33:47;5.40;;;1.10;;
6412;SDS011;3239;48.714;9.472;2023-01-10T14:36:15;11.27;;;1.50;;
6412;SDS011;3239;48.714;9.472;2023-01-10T14:39:10;3.43;;;1.23;;
6412;SDS011;3239;48.714;9.472;2023-01-10T14:41:43;5.30;;;1.33;;
6412;SDS011;3239;48.714;9.472;2023-01-10T14:47:04;2.80;;;1.13;;
6412;SDS011;3239;48.714;9.472;2023-01-10T14:49:53;4.90;;;1.30;;
6412;SDS011;3239;48.714;9.472;2023-01-10T14:52:22;5.93;;;1.33;;
6412;SDS011;3239;48.714;9.472;2023-01-10T14:55:09;6.60;;;1.10;;
6412;SDS011;3239;48.714;9.472;2023-01-10T14:57:40;9.53;;;1.80;;
6412;SDS011;3239;48.714;9.472;2023-01-10T15:00:33;6.63;;;1.93;;
6412;SDS011;3239;48.714;9.472;2023-01-10T15:03:02;7.33;;;1.40;;
6412;SDS011;3239;48.714;9.472;2023-01-10T15:05:29;4.80;;;1.47;;
6412;SDS011;3239;48.714;9.472;2023-01-10T15:11:02;3.13;;;1.83;;
6412;SDS011;3239;48.714;9.472;2023-01-10T15:13:33;3.27;;;1.00;;
6412;SDS011;3239;48.714;9.472;2023-01-10T15:16:11;4.03;;;1.07;;
6412;SDS011;3239;48.714;9.472;2023-01-10T15:18:47;3.67;;;1.20;;
6412;SDS011;3239;48.714;9.472;2023-01-10T15:21:14;4.03;;;1.07;;
6412;SDS011;3239;48.714;9.472;2023-01-10T15:23:44;3.80;;;1.20;;
6412;SDS011;3239;48.714;9.472;2023-01-10T15:26:12;2.30;;;1.17;;
6412;SDS011;3239;48.714;9.472;2023-01-10T15:31:43;3.20;;;0.93;;
6412;SDS011;3239;48.714;9.472;2023-01-10T15:34:10;3.23;;;1.10;;
6412;SDS011;3239;48.714;9.472;2023-01-10T15:36:56;2.53;;;1.63;;
6412;SDS011;3239;48.714;9.472;2023-01-10T15:39:33;8.67;;;1.40;;
6412;SDS011;3239;48.714;9.472;2023-01-10T15:42:10;3.20;;;1.23;;
6412;SDS011;3239;48.714;9.472;2023-01-10T15:53:00;3.77;;;1.50;;
6412;SDS011;3239;48.714;9.472;2023-01-10T16:00:56;6.10;;;1.30;;
6412;SDS011;3239;48.714;9.472;2023-01-10T16:03:33;2.43;;;0.93;;
6412;SDS011;3239;48.714;9.472;2023-01-10T16:09:01;5.80;;;1.80;;
6412;SDS011;3239;48.714;9.472;2023-01-10T16:11:48;5.53;;;1.63;;
6412;SDS011;3239;48.714;9.472;2023-01-10T16:14:34;4.23;;;1.43;;
6412;SDS011;3239;48.714;9.472;2023-01-10T16:17:00;3.93;;;1.30;;
6412;SDS011;3239;48.714;9.472;2023-01-10T16:19:27;2.63;;;1.07;;
6412;SDS011;3239;48.714;9.472;2023-01-10T16:21:53;7.50;;;2.50;;
6412;SDS011;3239;48.714;9.472;2023-01-10T16:24:26;8.73;;;2.40;;
6412;SDS011;3239;48.714;9.472;2023-01-10T16:27:05;5.33;;;2.07;;
6412;SDS011;3239;48.714;9.472;2023-01-10T16:29:31;5.63;;;2.43;;
6412;SDS011;3239;48.714;9.472;2023-01-10T16:31:57;5.70;;;1.67;;
6412;SDS011;3239;48.714;9.472;2023-01-10T16:34:23;13.37;;;2.70;;
6412;SDS011;3239;48.714;9.472;2023-01-10T16:36:50;5.60;;;1.87;;
6412;SDS011;3239;48.714;9.472;2023-01-10T16:39:17;7.73;;;1.83;;
6412;SDS011;3239;48.714;9.472;2023-01-10T16:41:46;5.03;;;2.00;;
6412;SDS011;3239;48.714;9.472;2023-01-10T16:44:31;6.03;;;1.90;;
6412;SDS011;3239;48.714;9.472;2023-01-10T16:46:58;8.40;;;2.60;;
6412;SDS011;3239;48.714;9.472;2023-01-10T16:49:25;6.20;;;2.43;;
6412;SDS011;3239;48.714;9.472;2023-01-10T16:51:51;6.67;;;3.50;;
6412;SDS011;3239;48.714;9.472;2023-01-10T16:54:19;9.90;;;3.57;;
6412;SDS011;3239;48.714;9.472;2023-01-10T16:56:49;8.77;;;3.20;;
6412;SDS011;3239;48.714;9.472;2023-01-10T16:59:15;5.77;;;3.07;;
6412;SDS011;3239;48.714;9.472;2023-01-10T17:01:54;8.40;;;3.30;;
6412;SDS011;3239;48.714;9.472;2023-01-10T17:04:26;5.33;;;2.10;;
6412;SDS011;3239;48.714;9.472;2023-01-10T17:06:59;10.80;;;2.27;;
6412;SDS011;3239;48.714;9.472;2023-01-10T17:09:25;7.53;;;2.93;;
6412;SDS011;3239;48.714;9.472;2023-01-10T17:11:54;7.80;;;2.60;;
6412;SDS011;3239;48.714;9.472;2023-01-10T17:14:35;3.27;;;1.40;;
6412;SDS011;3239;48.714;9.472;2023-01-10T17:17:03;3.90;;;1.47;;
6412;SDS011;3239;48.714;9.472;2023-01-10T17:19:29;5.10;;;1.57;;
6412;SDS011;3239;48.714;9.472;2023-01-10T17:21:55;5.37;;;1.50;;
6412;SDS011;3239;48.714;9.472;2023-01-10T17:24:20;5.13;;;1.33;;
6412;SDS011;3239;48.714;9.472;2023-01-10T17:26:46;5.77;;;1.70;;
6412;SDS011;3239;48.714;9.472;2023-01-10T17:29:12;3.90;;;1.67;;
6412;SDS011;3239;48.714;9.472;2023-01-10T17:31:38;2.53;;;1.10;;
6412;SDS011;3239;48.714;9.472;2023-01-10T17:34:03;3.13;;;1.10;;
6412;SDS011;3239;48.714;9.472;2023-01-10T17:36:29;7.10;;;1.43;;
6412;SDS011;3239;48.714;9.472;2023-01-10T17:38:56;4.60;;;1.10;;
6412;SDS011;3239;48.714;9.472;2023-01-10T17:41:23;4.20;;;1.70;;
6412;SDS011;3239;48.714;9.472;2023-01-10T17:43:49;3.30;;;2.03;;
6412;SDS011;3239;48.714;9.472;2023-01-10T17:46:15;4.83;;;1.80;;
6412;SDS011;3239;48.714;9.472;2023-01-10T17:48:41;4.17;;;1.63;;
6412;SDS011;3239;48.714;9.472;2023-01-10T17:51:08;8.20;;;2.83;;
6412;SDS011;3239;48.714;9.472;2023-01-10T17:53:37;3.30;;;1.50;;
6412;SDS011;3239;48.714;9.472;2023-01-10T17:56:06;3.07;;;1.50;;
6412;SDS011;3239;48.714;9.472;2023-01-10T17:58:33;3.70;;;1.87;;
6412;SDS011;3239;48.714;9.472;2023-01-10T18:00:59;3.00;;;1.27;;
6412;SDS011;3239;48.714;9.472;2023-01-10T18:03:25;4.30;;;1.40;;
6412;SDS011;3239;48.714;9.472;2023-01-10T18:05:51;3.27;;;1.60;;
6412;SDS011;3239;48.714;9.472;2023-01-10T18:08:19;4.03;;;1.90;;